createdAt,value
2016-07-13T00:00:33.833Z,0
2016-07-13T00:01:31.693Z,0
2016-07-13T00:02:33.097Z,0
2016-07-13T00:03:32.379Z,0
2016-07-13T00:04:32.373Z,0
2016-07-13T00:05:33.071Z,0
2016-07-13T00:06:33.050Z,0
2016-07-13T00:07:32.325Z,0
2016-07-13T00:08:32.328Z,0
2016-07-13T00:09:32.306Z,0
2016-07-13T00:10:31.589Z,0
2016-07-13T00:11:32.996Z,0
2016-07-13T00:12:33.690Z,0
2016-07-13T00:13:32.260Z,0
2016-07-13T00:14:31.548Z,0
2016-07-13T00:15:32.239Z,0
2016-07-13T00:16:32.931Z,0
2016-07-13T00:17:32.220Z,0
2016-07-13T00:18:31.495Z,0
2016-07-13T00:19:31.487Z,0
2016-07-13T00:20:32.184Z,0
2016-07-13T00:21:32.168Z,0
2016-07-13T00:22:32.871Z,0
2016-07-13T00:23:31.450Z,0
2016-07-13T00:24:32.841Z,0
2016-07-13T00:25:32.829Z,0
2016-07-13T00:26:32.317Z,0
2016-07-13T00:27:32.808Z,0
2016-07-13T00:28:32.819Z,0
2016-07-13T00:29:32.795Z,0
2016-07-13T00:30:32.066Z,0
2016-07-13T00:31:31.402Z,0
2016-07-13T00:32:31.341Z,0
2016-07-13T00:33:33.450Z,0
2016-07-13T00:34:32.732Z,0
2016-07-13T00:35:31.303Z,0
2016-07-13T00:36:31.294Z,0
2016-07-13T00:37:31.992Z,0
2016-07-13T00:38:31.269Z,0
2016-07-13T00:39:31.253Z,0
2016-07-13T00:40:31.948Z,0
2016-07-13T00:41:31.949Z,0
2016-07-13T00:42:32.639Z,0
2016-07-13T00:43:31.210Z,0
2016-07-13T00:44:31.919Z,0
2016-07-13T00:45:31.900Z,0
2016-07-13T00:46:31.886Z,0
2016-07-13T00:47:31.874Z,0
2016-07-13T00:48:32.568Z,0
2016-07-13T00:49:31.845Z,0
2016-07-13T00:50:32.547Z,0
2016-07-13T00:51:31.827Z,0
2016-07-13T00:52:31.113Z,0
2016-07-13T00:53:32.520Z,0
2016-07-13T00:54:31.787Z,0
2016-07-13T00:55:31.079Z,0
2016-07-13T00:56:31.771Z,0
2016-07-13T00:57:31.047Z,0
2016-07-13T00:58:32.456Z,0
2016-07-13T00:59:31.735Z,0
2016-07-13T01:00:32.427Z,0
2016-07-13T01:01:32.415Z,0
2016-07-13T01:02:32.407Z,0
2016-07-13T01:03:32.396Z,0
2016-07-13T01:04:32.388Z,0
2016-07-13T01:05:31.670Z,0
2016-07-13T01:06:30.945Z,0
2016-07-13T01:07:31.642Z,0
2016-07-13T01:08:31.646Z,0
2016-07-13T01:09:30.926Z,0
2016-07-13T01:10:32.317Z,0
2016-07-13T01:11:30.889Z,0
2016-07-13T01:12:31.585Z,0
2016-07-13T01:13:31.575Z,0
2016-07-13T01:14:32.263Z,0
2016-07-13T01:15:31.555Z,0
2016-07-13T01:16:32.955Z,0
2016-07-13T01:17:30.819Z,0
2016-07-13T01:18:32.225Z,0
2016-07-13T01:19:31.506Z,0
2016-07-13T01:20:30.789Z,0
2016-07-13T01:21:32.186Z,0
2016-07-13T01:22:31.487Z,0
2016-07-13T01:23:31.472Z,0
2016-07-13T01:24:31.446Z,0
2016-07-13T01:25:30.727Z,0
2016-07-13T01:26:31.423Z,0
2016-07-13T01:27:30.698Z,0
2016-07-13T01:28:31.410Z,0
2016-07-13T01:29:31.414Z,0
2016-07-13T01:30:31.388Z,0
2016-07-13T01:31:32.068Z,0
2016-07-13T01:32:32.773Z,0
2016-07-13T01:33:30.626Z,0
2016-07-13T01:34:30.620Z,0
2016-07-13T01:35:31.364Z,0
2016-07-13T01:36:32.006Z,0
2016-07-13T01:37:31.293Z,0
2016-07-13T01:38:32.691Z,0
2016-07-13T01:39:31.263Z,0
2016-07-13T01:40:30.550Z,0
2016-07-13T01:41:30.547Z,0
2016-07-13T01:42:31.226Z,0
2016-07-13T01:43:32.633Z,0
2016-07-13T01:44:30.504Z,0
2016-07-13T01:45:31.197Z,0
2016-07-13T01:46:31.204Z,0
2016-07-13T01:47:31.876Z,0
2016-07-13T01:48:31.163Z,0
2016-07-13T01:49:31.150Z,0
2016-07-13T01:50:32.548Z,0
2016-07-13T01:51:31.838Z,0
2016-07-13T01:52:31.160Z,0
2016-07-13T01:53:31.101Z,0
2016-07-13T01:54:30.388Z,0
2016-07-13T01:55:30.368Z,0
2016-07-13T01:56:30.357Z,0
2016-07-13T01:57:31.763Z,0
2016-07-13T01:58:31.041Z,0
2016-07-13T01:59:30.324Z,0
2016-07-13T02:00:31.021Z,0
2016-07-13T02:01:31.014Z,0
2016-07-13T02:02:30.991Z,0
2016-07-13T02:03:30.979Z,0
2016-07-13T02:04:32.381Z,0
2016-07-13T02:05:30.259Z,0
2016-07-13T02:06:30.275Z,0
2016-07-13T02:07:30.935Z,0
2016-07-13T02:08:30.218Z,0
2016-07-13T02:09:30.200Z,0
2016-07-13T02:10:30.902Z,0
2016-07-13T02:11:30.177Z,0
2016-07-13T02:12:30.872Z,0
2016-07-13T02:13:30.879Z,0
2016-07-13T02:14:30.861Z,0
2016-07-13T02:15:31.542Z,0
2016-07-13T02:16:30.879Z,0
2016-07-13T02:17:30.836Z,0
2016-07-13T02:18:31.508Z,0
2016-07-13T02:19:30.793Z,0
2016-07-13T02:20:30.790Z,0
2016-07-13T02:21:30.769Z,0
2016-07-13T02:22:30.763Z,0
2016-07-13T02:23:30.750Z,0
2016-07-13T02:24:31.436Z,0
2016-07-13T02:25:32.136Z,0
2016-07-13T02:26:30.906Z,0
2016-07-13T02:27:30.741Z,0
2016-07-13T02:28:29.978Z,0
2016-07-13T02:29:29.961Z,0
2016-07-13T02:30:31.369Z,0
2016-07-13T02:31:29.943Z,0
2016-07-13T02:32:30.639Z,0
2016-07-13T02:33:30.624Z,0
2016-07-13T02:34:31.318Z,0
2016-07-13T02:35:32.026Z,0
2016-07-13T02:36:31.297Z,0
2016-07-13T02:37:31.277Z,0
2016-07-13T02:38:30.563Z,0
2016-07-13T02:39:31.260Z,0
2016-07-13T02:40:30.536Z,0
2016-07-13T02:41:30.532Z,0
2016-07-13T02:42:30.521Z,0
2016-07-13T02:43:29.797Z,0
2016-07-13T02:44:31.201Z,0
2016-07-13T02:45:30.482Z,0
2016-07-13T02:46:30.470Z,0
2016-07-13T02:47:30.453Z,0
2016-07-13T02:48:30.446Z,0
2016-07-13T02:49:30.433Z,0
2016-07-13T02:50:30.419Z,4
2016-07-13T02:51:31.142Z,4
2016-07-13T02:52:30.448Z,0
2016-07-13T02:53:31.098Z,0
2016-07-13T02:54:29.666Z,4
2016-07-13T02:55:29.653Z,4
2016-07-13T02:56:30.353Z,0
2016-07-13T02:57:31.059Z,4
2016-07-13T02:58:31.073Z,4
2016-07-13T02:59:29.608Z,4
2016-07-13T03:00:30.356Z,8
2016-07-13T03:01:30.293Z,8
2016-07-13T03:02:30.276Z,8
2016-07-13T03:03:29.557Z,8
2016-07-13T03:04:30.963Z,12
2016-07-13T03:05:30.953Z,12
2016-07-13T03:06:29.520Z,12
2016-07-13T03:07:30.931Z,16
2016-07-13T03:08:30.208Z,16
2016-07-13T03:09:30.902Z,20
2016-07-13T03:10:29.473Z,20
2016-07-13T03:11:31.586Z,24
2016-07-13T03:12:30.864Z,24
2016-07-13T03:13:30.148Z,32
2016-07-13T03:14:30.846Z,36
2016-07-13T03:15:30.124Z,36
2016-07-13T03:16:30.113Z,44
2016-07-13T03:17:30.807Z,44
2016-07-13T03:18:30.088Z,56
2016-07-13T03:19:30.080Z,56
2016-07-13T03:20:30.783Z,64
2016-07-13T03:21:30.050Z,72
2016-07-13T03:22:29.328Z,80
2016-07-13T03:23:31.436Z,88
2016-07-13T03:24:29.304Z,92
2016-07-13T03:25:30.000Z,100
2016-07-13T03:26:29.285Z,108
2016-07-13T03:27:29.272Z,116
2016-07-13T03:28:29.974Z,128
2016-07-13T03:29:29.951Z,140
2016-07-13T03:30:29.952Z,148
2016-07-13T03:31:29.221Z,160
2016-07-13T03:32:29.910Z,168
2016-07-13T03:33:29.197Z,180
2016-07-13T03:34:29.900Z,192
2016-07-13T03:35:30.594Z,204
2016-07-13T03:36:29.877Z,216
2016-07-13T03:37:30.568Z,228
2016-07-13T03:38:29.893Z,244
2016-07-13T03:39:29.835Z,256
2016-07-13T03:40:29.123Z,268
2016-07-13T03:41:29.811Z,284
2016-07-13T03:42:29.104Z,300
2016-07-13T03:43:29.073Z,320
2016-07-13T03:44:29.066Z,336
2016-07-13T03:45:30.470Z,356
2016-07-13T03:46:29.046Z,372
2016-07-13T03:47:29.028Z,392
2016-07-13T03:48:29.721Z,412
2016-07-13T03:49:29.709Z,424
2016-07-13T03:50:31.152Z,444
2016-07-13T03:51:29.692Z,460
2016-07-13T03:52:28.970Z,480
2016-07-13T03:53:29.705Z,492
2016-07-13T03:54:29.658Z,512
2016-07-13T03:55:29.639Z,524
2016-07-13T03:56:30.340Z,540
2016-07-13T03:57:30.327Z,552
2016-07-13T03:58:29.611Z,568
2016-07-13T03:59:30.291Z,584
2016-07-13T04:00:28.869Z,600
2016-07-13T04:01:28.858Z,620
2016-07-13T04:02:29.551Z,640
2016-07-13T04:03:28.833Z,660
2016-07-13T04:04:29.530Z,684
2016-07-13T04:05:30.223Z,700
2016-07-13T04:06:30.211Z,720
2016-07-13T04:07:30.219Z,736
2016-07-13T04:08:28.769Z,748
2016-07-13T04:09:28.769Z,772
2016-07-13T04:10:29.454Z,792
2016-07-13T04:11:29.444Z,812
2016-07-13T04:12:29.434Z,832
2016-07-13T04:13:29.445Z,852
2016-07-13T04:14:30.121Z,876
2016-07-13T04:15:28.685Z,896
2016-07-13T04:16:30.112Z,928
2016-07-13T04:17:30.081Z,960
2016-07-13T04:18:29.378Z,988
2016-07-13T04:19:28.644Z,1016
2016-07-13T04:20:28.648Z,1064
2016-07-13T04:21:29.320Z,1120
2016-07-13T04:22:29.308Z,1168
2016-07-13T04:23:30.714Z,1196
2016-07-13T04:24:28.579Z,1224
2016-07-13T04:25:29.986Z,1248
2016-07-13T04:26:30.200Z,1280
2016-07-13T04:27:29.956Z,1304
2016-07-13T04:28:29.949Z,1328
2016-07-13T04:29:29.230Z,1340
2016-07-13T04:30:28.508Z,1344
2016-07-13T04:31:29.909Z,1332
2016-07-13T04:32:28.487Z,1312
2016-07-13T04:33:29.182Z,1304
2016-07-13T04:34:29.162Z,1308
2016-07-13T04:35:29.156Z,1332
2016-07-13T04:36:28.454Z,1368
2016-07-13T04:37:28.460Z,1404
2016-07-13T04:38:29.121Z,1432
2016-07-13T04:39:29.816Z,1468
2016-07-13T04:40:29.097Z,1508
2016-07-13T04:41:28.373Z,1540
2016-07-13T04:42:29.780Z,1568
2016-07-13T04:43:28.355Z,1596
2016-07-13T04:44:29.046Z,1620
2016-07-13T04:45:28.332Z,1640
2016-07-13T04:46:28.316Z,1660
2016-07-13T04:47:29.009Z,1676
2016-07-13T04:48:29.017Z,1688
2016-07-13T04:49:28.996Z,1704
2016-07-13T04:50:28.980Z,1720
2016-07-13T04:51:30.374Z,1744
2016-07-13T04:52:29.735Z,1756
2016-07-13T04:53:28.942Z,1764
2016-07-13T04:54:29.638Z,1776
2016-07-13T04:55:28.915Z,1788
2016-07-13T04:56:29.605Z,1804
2016-07-13T04:57:28.896Z,1816
2016-07-13T04:58:28.183Z,1836
2016-07-13T04:59:29.588Z,1848
2016-07-13T05:00:29.570Z,1852
2016-07-13T05:01:29.552Z,1868
2016-07-13T05:02:28.838Z,1888
2016-07-13T05:03:28.820Z,1916
2016-07-13T05:04:28.811Z,1940
2016-07-13T05:05:29.506Z,1952
2016-07-13T05:06:29.566Z,1948
2016-07-13T05:07:28.072Z,1912
2016-07-13T05:08:29.485Z,1852
2016-07-13T05:09:28.749Z,1748
2016-07-13T05:10:28.747Z,1732
2016-07-13T05:11:29.441Z,1800
2016-07-13T05:12:29.427Z,1904
2016-07-13T05:13:28.003Z,2028
2016-07-13T05:14:28.695Z,2080
2016-07-13T05:15:28.679Z,2092
2016-07-13T05:16:27.969Z,2084
2016-07-13T05:17:28.665Z,2044
2016-07-13T05:18:28.645Z,1984
2016-07-13T05:19:29.344Z,1940
2016-07-13T05:20:29.335Z,1932
2016-07-13T05:21:29.315Z,1916
2016-07-13T05:22:29.309Z,1980
2016-07-13T05:23:28.602Z,2052
2016-07-13T05:24:28.579Z,2084
2016-07-13T05:25:27.860Z,2084
2016-07-13T05:26:27.854Z,2076
2016-07-13T05:27:27.837Z,2036
2016-07-13T05:28:29.236Z,2052
2016-07-13T05:29:29.280Z,2004
2016-07-13T05:30:29.227Z,2016
2016-07-13T05:31:28.495Z,2056
2016-07-13T05:32:29.193Z,2068
2016-07-13T05:33:29.889Z,2116
2016-07-13T05:34:29.180Z,2128
2016-07-13T05:35:27.743Z,2128
2016-07-13T05:36:27.737Z,2160
2016-07-13T05:37:28.433Z,2172
2016-07-13T05:38:28.416Z,2184
2016-07-13T05:39:28.399Z,2184
2016-07-13T05:40:27.688Z,2180
2016-07-13T05:41:27.680Z,2164
2016-07-13T05:42:29.783Z,2156
2016-07-13T05:43:28.360Z,2144
2016-07-13T05:44:27.639Z,2144
2016-07-13T05:45:28.333Z,2136
2016-07-13T05:46:29.027Z,2128
2016-07-13T05:47:27.605Z,2128
2016-07-13T05:48:28.303Z,2124
2016-07-13T05:49:29.701Z,2128
2016-07-13T05:50:28.986Z,2128
2016-07-13T05:51:28.270Z,2140
2016-07-13T05:52:28.261Z,2148
2016-07-13T05:53:27.535Z,2156
2016-07-13T05:54:28.233Z,2172
2016-07-13T05:55:28.928Z,2164
2016-07-13T05:56:28.222Z,2176
2016-07-13T05:57:27.487Z,2192
2016-07-13T05:58:27.486Z,2188
2016-07-13T05:59:27.474Z,2200
2016-07-13T06:00:27.463Z,2212
2016-07-13T06:01:28.171Z,2228
2016-07-13T06:02:27.451Z,2228
2016-07-13T06:03:27.432Z,2248
2016-07-13T06:04:28.125Z,2248
2016-07-13T06:05:28.816Z,2252
2016-07-13T06:06:28.100Z,2272
2016-07-13T06:07:28.092Z,2292
2016-07-13T06:08:28.080Z,2320
2016-07-13T06:09:28.064Z,2332
2016-07-13T06:10:29.472Z,2368
2016-07-13T06:11:27.341Z,2396
2016-07-13T06:12:28.744Z,2428
2016-07-13T06:13:28.022Z,2452
2016-07-13T06:14:27.303Z,2468
2016-07-13T06:15:29.405Z,2752
2016-07-13T06:16:27.275Z,8048
2016-07-13T06:17:28.686Z,15296
2016-07-13T06:18:27.259Z,17696
2016-07-13T06:19:27.953Z,13524
2016-07-13T06:20:27.943Z,9724
2016-07-13T06:21:28.646Z,2576
2016-07-13T06:22:27.925Z,2564
2016-07-13T06:23:27.922Z,2576
2016-07-13T06:24:27.195Z,2608
2016-07-13T06:25:28.601Z,2896
2016-07-13T06:26:28.289Z,2640
2016-07-13T06:27:27.161Z,2660
2016-07-13T06:28:27.866Z,2688
2016-07-13T06:29:27.194Z,2684
2016-07-13T06:30:27.837Z,2684
2016-07-13T06:31:28.536Z,2716
2016-07-13T06:32:27.810Z,2752
2016-07-13T06:33:27.108Z,2744
2016-07-13T06:34:28.510Z,2748
2016-07-13T06:35:29.195Z,2732
2016-07-13T06:36:28.483Z,2720
2016-07-13T06:37:27.054Z,2708
2016-07-13T06:38:27.753Z,2768
2016-07-13T06:39:28.445Z,2736
2016-07-13T06:40:29.148Z,2740
2016-07-13T06:41:27.716Z,2784
2016-07-13T06:42:27.708Z,2796
2016-07-13T06:43:26.998Z,2836
2016-07-13T06:44:27.686Z,2812
2016-07-13T06:45:28.387Z,2784
2016-07-13T06:46:26.964Z,2648
2016-07-13T06:47:27.653Z,2544
2016-07-13T06:48:27.651Z,2596
2016-07-13T06:49:29.051Z,2704
2016-07-13T06:50:27.621Z,2840
2016-07-13T06:51:26.915Z,2908
2016-07-13T06:52:28.315Z,2984
2016-07-13T06:53:27.588Z,3020
2016-07-13T06:54:26.894Z,3096
2016-07-13T06:55:27.574Z,3144
2016-07-13T06:56:27.562Z,3228
2016-07-13T06:57:26.841Z,3368
2016-07-13T06:58:26.856Z,3488
2016-07-13T06:59:28.236Z,4208
2016-07-13T07:00:26.813Z,4956
2016-07-13T07:01:28.218Z,4932
2016-07-13T07:02:27.503Z,5792
2016-07-13T07:03:27.492Z,3808
2016-07-13T07:04:28.182Z,3876
2016-07-13T07:05:27.470Z,3924
2016-07-13T07:06:28.164Z,4012
2016-07-13T07:07:28.160Z,4080
2016-07-13T07:08:28.151Z,4244
2016-07-13T07:09:26.724Z,4420
2016-07-13T07:10:28.126Z,4564
2016-07-13T07:11:27.415Z,4592
2016-07-13T07:12:26.693Z,4592
2016-07-13T07:13:27.391Z,4648
2016-07-13T07:14:27.377Z,5004
2016-07-13T07:15:28.079Z,5112
2016-07-13T07:16:28.075Z,5408
2016-07-13T07:17:28.067Z,6028
2016-07-13T07:18:26.632Z,6340
2016-07-13T07:19:28.033Z,6692
2016-07-13T07:20:26.626Z,6376
2016-07-13T07:21:27.308Z,6208
2016-07-13T07:22:27.298Z,6236
2016-07-13T07:23:26.582Z,6180
2016-07-13T07:24:27.280Z,6212
2016-07-13T07:25:27.970Z,5940
2016-07-13T07:26:26.558Z,6004
2016-07-13T07:27:26.541Z,5836
2016-07-13T07:28:26.537Z,5756
2016-07-13T07:29:27.236Z,5936
2016-07-13T07:30:27.930Z,6136
2016-07-13T07:31:26.500Z,6364
2016-07-13T07:32:27.202Z,6568
2016-07-13T07:33:27.194Z,7032
2016-07-13T07:34:28.415Z,7512
2016-07-13T07:35:27.905Z,7936
2016-07-13T07:36:26.469Z,10412
2016-07-13T07:37:27.864Z,16056
2016-07-13T07:38:27.851Z,18272
2016-07-13T07:39:27.137Z,8620
2016-07-13T07:40:27.841Z,7040
2016-07-13T07:41:27.823Z,8756
2016-07-13T07:42:27.819Z,14388
2016-07-13T07:43:27.814Z,18336
2016-07-13T07:44:27.087Z,23232
2016-07-13T07:45:26.379Z,32416
2016-07-13T07:46:28.490Z,34432
2016-07-13T07:47:28.479Z,30688
2016-07-13T07:48:28.467Z,24480
2016-07-13T07:49:27.062Z,16192
2016-07-13T07:50:27.760Z,13960
2016-07-13T07:51:27.033Z,18752
2016-07-13T07:52:27.036Z,26784
2016-07-13T07:53:27.017Z,31936
2016-07-13T07:54:27.034Z,35264
2016-07-13T07:55:27.015Z,35424
2016-07-13T07:56:27.720Z,33216
2016-07-13T07:57:27.705Z,32576
2016-07-13T07:58:26.993Z,35072
2016-07-13T07:59:27.685Z,38912
2016-07-13T08:00:27.678Z,38336
2016-07-13T08:01:26.258Z,38592
2016-07-13T08:02:26.959Z,41792
2016-07-13T08:03:27.658Z,41568
2016-07-13T08:04:26.943Z,36672
2016-07-13T08:05:28.356Z,12108
2016-07-13T08:06:27.642Z,16128
2016-07-13T08:07:27.631Z,37664
2016-07-13T08:08:26.925Z,33984
2016-07-13T08:09:26.913Z,26144
2016-07-13T08:10:26.198Z,9064
2016-07-13T08:11:26.911Z,7476
2016-07-13T08:12:27.609Z,7824
2016-07-13T08:13:27.597Z,10748
2016-07-13T08:14:26.178Z,21376
2016-07-13T08:15:26.174Z,9408
2016-07-13T08:16:28.286Z,9816
2016-07-13T08:17:26.165Z,11936
2016-07-13T08:18:26.176Z,10424
2016-07-13T08:19:27.578Z,9288
2016-07-13T08:20:26.862Z,9084
2016-07-13T08:21:26.840Z,8676
2016-07-13T08:22:27.604Z,9064
2016-07-13T08:23:26.830Z,7344
2016-07-13T08:24:26.815Z,11744
2016-07-13T08:25:27.522Z,54752
2016-07-13T08:26:26.811Z,58880
2016-07-13T08:27:26.815Z,58496
2016-07-13T08:28:27.499Z,56352
2016-07-13T08:29:28.204Z,49664
2016-07-13T08:30:26.080Z,46336
2016-07-13T08:31:26.794Z,48064
2016-07-13T08:32:26.769Z,50752
2016-07-13T08:33:26.769Z,56640
2016-07-13T08:34:26.765Z,57984
2016-07-13T08:35:26.755Z,58048
2016-07-13T08:36:26.754Z,11448
2016-07-13T08:37:27.456Z,22432
2016-07-13T08:38:26.042Z,7200
2016-07-13T08:39:26.747Z,7116
2016-07-13T08:40:27.440Z,9372
2016-07-13T08:41:27.437Z,56000
2016-07-13T08:42:26.725Z,64096
2016-07-13T08:43:26.720Z,66176
2016-07-13T08:44:26.714Z,66560
2016-07-13T08:45:27.421Z,65408
2016-07-13T08:46:26.008Z,59072
2016-07-13T08:47:26.697Z,47808
2016-07-13T08:48:25.985Z,53120
2016-07-13T08:49:26.841Z,27968
2016-07-13T08:50:26.700Z,40096
2016-07-13T08:51:26.695Z,29088
2016-07-13T08:52:26.681Z,19328
2016-07-13T08:53:25.964Z,18848
2016-07-13T08:54:27.390Z,24800
2016-07-13T08:55:26.679Z,34496
2016-07-13T08:56:26.660Z,35104
2016-07-13T08:57:26.670Z,13892
2016-07-13T08:58:27.362Z,14408
2016-07-13T08:59:26.654Z,7772
2016-07-13T09:00:28.061Z,11984
2016-07-13T09:01:26.648Z,7036
2016-07-13T09:02:25.930Z,6908
2016-07-13T09:03:26.643Z,22688
2016-07-13T09:04:26.621Z,44384
2016-07-13T09:05:26.619Z,30272
2016-07-13T09:06:26.618Z,18208
2016-07-13T09:07:26.610Z,12516
2016-07-13T09:08:26.598Z,11516
2016-07-13T09:09:27.303Z,12684
2016-07-13T09:10:25.886Z,10924
2016-07-13T09:11:25.883Z,10748
2016-07-13T09:12:26.590Z,11580
2016-07-13T09:13:26.575Z,21504
2016-07-13T09:14:26.572Z,37280
2016-07-13T09:15:27.270Z,16768
2016-07-13T09:16:26.551Z,18592
2016-07-13T09:17:27.319Z,19168
2016-07-13T09:18:26.549Z,16036
2016-07-13T09:19:26.540Z,15676
2016-07-13T09:20:25.826Z,21728
2016-07-13T09:21:26.529Z,26176
2016-07-13T09:22:26.523Z,27488
2016-07-13T09:23:26.533Z,26176
2016-07-13T09:24:27.226Z,34816
2016-07-13T09:25:26.507Z,27776
2016-07-13T09:26:26.502Z,25568
2016-07-13T09:27:26.492Z,34048
2016-07-13T09:28:27.197Z,41696
2016-07-13T09:29:27.238Z,46336
2016-07-13T09:30:27.181Z,82240
2016-07-13T09:31:25.759Z,77792
2016-07-13T09:32:27.170Z,72160
2016-07-13T09:33:27.871Z,63872
2016-07-13T09:34:27.155Z,40544
2016-07-13T09:35:26.460Z,54080
2016-07-13T09:36:26.442Z,22688
2016-07-13T09:37:25.721Z,17952
2016-07-13T09:38:27.136Z,15516
2016-07-13T09:39:27.133Z,14540
2016-07-13T09:40:26.412Z,14260
2016-07-13T09:41:27.127Z,14572
2016-07-13T09:42:26.415Z,15308
2016-07-13T09:43:27.102Z,15536
2016-07-13T09:44:26.396Z,16020
2016-07-13T09:45:27.801Z,15056
2016-07-13T09:46:26.383Z,15004
2016-07-13T09:47:26.380Z,16488
2016-07-13T09:48:27.081Z,18592
2016-07-13T09:49:27.078Z,57792
2016-07-13T09:50:26.368Z,53408
2016-07-13T09:51:27.068Z,33536
2016-07-13T09:52:26.343Z,41024
2016-07-13T09:53:26.339Z,54496
2016-07-13T09:54:26.334Z,82336
2016-07-13T09:55:27.035Z,50304
2016-07-13T09:56:25.667Z,87616
2016-07-13T09:57:26.319Z,61568
2016-07-13T09:58:27.746Z,83648
2016-07-13T09:59:25.597Z,77056
2016-07-13T10:00:27.014Z,79104
2016-07-13T10:01:27.005Z,86208
2016-07-13T10:02:25.586Z,93088
2016-07-13T10:03:26.998Z,63424
2016-07-13T10:04:26.298Z,60544
2016-07-13T10:05:26.293Z,46880
2016-07-13T10:06:26.981Z,58784
2016-07-13T10:07:26.279Z,57344
2016-07-13T10:08:25.568Z,64864
2016-07-13T10:09:26.269Z,69664
2016-07-13T10:10:26.974Z,37856
2016-07-13T10:11:25.561Z,66336
2016-07-13T10:12:27.019Z,66336
2016-07-13T10:13:26.258Z,83264
2016-07-13T10:14:25.550Z,90880
2016-07-13T10:15:25.542Z,80128
2016-07-13T10:16:26.955Z,85600
2016-07-13T10:17:25.545Z,102752
2016-07-13T10:18:26.251Z,92512
2016-07-13T10:19:26.956Z,45504
2016-07-13T10:20:26.952Z,67264
2016-07-13T10:21:26.966Z,26016
2016-07-13T10:22:26.957Z,73696
2016-07-13T10:23:26.236Z,71104
2016-07-13T10:24:26.951Z,77536
2016-07-13T10:25:25.529Z,78240
2016-07-13T10:26:25.532Z,82816
2016-07-13T10:27:27.147Z,65824
2016-07-13T10:28:27.646Z,14380
2016-07-13T10:29:26.935Z,95872
2016-07-13T10:30:25.578Z,35488
2016-07-13T10:31:26.239Z,90272
2016-07-13T10:32:25.517Z,11808
2016-07-13T10:33:26.932Z,11940
2016-07-13T10:34:26.227Z,74304
2016-07-13T10:35:26.218Z,80640
2016-07-13T10:36:26.222Z,19008
2016-07-13T10:37:26.938Z,85696
2016-07-13T10:38:25.511Z,68672
2016-07-13T10:39:26.930Z,65856
2016-07-13T10:40:26.214Z,62912
2016-07-13T10:41:26.219Z,66432
2016-07-13T10:42:26.209Z,47456
2016-07-13T10:43:25.494Z,19040
2016-07-13T10:44:26.963Z,15052
2016-07-13T10:45:26.906Z,12912
2016-07-13T10:46:26.961Z,13484
2016-07-13T10:47:26.199Z,50784
2016-07-13T10:48:25.493Z,32992
2016-07-13T10:49:26.897Z,38528
2016-07-13T10:50:26.943Z,33344
2016-07-13T10:51:25.472Z,23776
2016-07-13T10:52:26.891Z,24416
2016-07-13T10:53:25.471Z,27520
2016-07-13T10:54:27.590Z,22016
2016-07-13T10:55:26.162Z,17408
2016-07-13T10:56:26.169Z,15660
2016-07-13T10:57:26.875Z,19008
2016-07-13T10:58:27.562Z,32672
2016-07-13T10:59:26.165Z,34432
2016-07-13T11:00:26.149Z,27744
2016-07-13T11:01:26.846Z,33024
2016-07-13T11:02:26.130Z,23328
2016-07-13T11:03:26.132Z,27584
2016-07-13T11:04:25.415Z,30976
2016-07-13T11:05:26.824Z,36480
2016-07-13T11:06:26.117Z,53920
2016-07-13T11:07:26.816Z,78624
2016-07-13T11:08:25.397Z,56640
2016-07-13T11:09:26.106Z,63968
2016-07-13T11:10:26.377Z,58816
2016-07-13T11:11:26.793Z,73024
2016-07-13T11:12:26.791Z,80544
2016-07-13T11:13:25.382Z,79168
2016-07-13T11:14:27.498Z,65184
2016-07-13T11:15:26.777Z,60352
2016-07-13T11:16:26.775Z,95520
2016-07-13T11:17:26.773Z,86048
2016-07-13T11:18:26.869Z,85632
2016-07-13T11:19:26.771Z,68512
2016-07-13T11:20:26.817Z,62432
2016-07-13T11:21:26.768Z,75904
2016-07-13T11:22:27.476Z,68864
2016-07-13T11:23:25.343Z,45696
2016-07-13T11:24:27.463Z,27424
2016-07-13T11:25:26.054Z,18560
2016-07-13T11:26:25.344Z,18208
2016-07-13T11:27:26.800Z,18528
2016-07-13T11:28:26.042Z,19488
2016-07-13T11:29:26.040Z,26656
2016-07-13T11:30:25.337Z,22880
2016-07-13T11:31:25.382Z,40128
2016-07-13T11:32:26.040Z,28128
2016-07-13T11:33:26.742Z,25568
2016-07-13T11:34:26.741Z,33280
2016-07-13T11:35:26.031Z,34560
2016-07-13T11:36:26.030Z,36320
2016-07-13T11:37:25.320Z,22912
2016-07-13T11:38:25.318Z,21600
2016-07-13T11:39:25.308Z,21248
2016-07-13T11:40:27.442Z,18432
2016-07-13T11:41:26.008Z,18432
2016-07-13T11:42:25.294Z,18880
2016-07-13T11:43:26.713Z,18912
2016-07-13T11:44:26.001Z,19200
2016-07-13T11:45:25.292Z,19584
2016-07-13T11:46:25.997Z,20800
2016-07-13T11:47:25.995Z,22208
2016-07-13T11:48:26.693Z,26496
2016-07-13T11:49:26.700Z,20800
2016-07-13T11:50:27.402Z,18688
2016-07-13T11:51:25.963Z,20224
2016-07-13T11:52:26.679Z,23392
2016-07-13T11:53:26.672Z,29088
2016-07-13T11:54:25.955Z,18656
2016-07-13T11:55:25.956Z,17312
2016-07-13T11:56:25.945Z,16576
2016-07-13T11:57:25.934Z,15672
2016-07-13T11:58:26.650Z,14676
2016-07-13T11:59:25.933Z,13964
2016-07-13T12:00:25.262Z,13472
2016-07-13T12:01:26.669Z,13528
2016-07-13T12:02:25.921Z,13864
2016-07-13T12:03:27.390Z,13892
2016-07-13T12:04:25.926Z,13836
2016-07-13T12:05:25.907Z,13680
2016-07-13T12:06:25.894Z,13076
2016-07-13T12:07:25.190Z,12272
2016-07-13T12:08:26.589Z,11828
2016-07-13T12:09:25.876Z,11392
2016-07-13T12:10:25.868Z,10980
2016-07-13T12:11:26.583Z,10896
2016-07-13T12:12:27.279Z,11216
2016-07-13T12:13:27.441Z,11308
2016-07-13T12:14:26.567Z,11148
2016-07-13T12:15:26.549Z,11100
2016-07-13T12:16:25.828Z,11004
2016-07-13T12:17:27.245Z,10436
2016-07-13T12:18:25.821Z,9312
2016-07-13T12:19:27.270Z,7764
2016-07-13T12:20:26.538Z,6328
2016-07-13T12:21:25.811Z,5356
2016-07-13T12:22:25.803Z,4840
2016-07-13T12:23:25.806Z,4600
2016-07-13T12:24:27.213Z,4572
2016-07-13T12:25:25.784Z,4740
2016-07-13T12:26:27.188Z,5188
2016-07-13T12:27:26.703Z,5892
2016-07-13T12:28:26.486Z,6876
2016-07-13T12:29:25.045Z,8096
2016-07-13T12:30:26.459Z,9564
2016-07-13T12:31:25.732Z,10716
2016-07-13T12:32:26.440Z,10436
2016-07-13T12:33:26.441Z,10296
2016-07-13T12:34:25.711Z,10512
2016-07-13T12:35:26.425Z,10360
2016-07-13T12:36:26.401Z,9664
2016-07-13T12:37:26.426Z,9056
2016-07-13T12:38:25.684Z,8852
2016-07-13T12:39:25.674Z,8812
2016-07-13T12:40:26.381Z,8644
2016-07-13T12:41:25.660Z,8332
2016-07-13T12:42:26.359Z,7828
2016-07-13T12:43:25.643Z,7492
2016-07-13T12:44:25.688Z,7392
2016-07-13T12:45:26.344Z,7504
2016-07-13T12:46:24.913Z,7812
2016-07-13T12:47:25.626Z,8368
2016-07-13T12:48:26.325Z,9100
2016-07-13T12:49:25.610Z,10080
2016-07-13T12:50:24.891Z,11340
2016-07-13T12:51:25.587Z,11848
2016-07-13T12:52:25.582Z,12152
2016-07-13T12:53:27.007Z,11652
2016-07-13T12:54:24.856Z,11008
2016-07-13T12:55:25.556Z,10548
2016-07-13T12:56:25.545Z,10504
2016-07-13T12:57:25.559Z,10604
2016-07-13T12:58:24.846Z,10828
2016-07-13T12:59:26.237Z,11012
2016-07-13T13:00:26.232Z,11128
2016-07-13T13:01:26.938Z,11240
2016-07-13T13:02:26.246Z,11320
2016-07-13T13:03:26.919Z,11360
2016-07-13T13:04:26.205Z,11492
2016-07-13T13:05:25.498Z,11672
2016-07-13T13:06:26.182Z,11796
2016-07-13T13:07:25.469Z,11872
2016-07-13T13:08:25.462Z,12136
2016-07-13T13:09:25.463Z,12628
2016-07-13T13:10:26.151Z,12260
2016-07-13T13:11:25.433Z,10956
2016-07-13T13:12:24.749Z,10724
2016-07-13T13:13:26.127Z,10404
2016-07-13T13:14:24.705Z,10060
2016-07-13T13:15:26.130Z,9888
2016-07-13T13:16:26.116Z,9852
2016-07-13T13:17:26.798Z,10000
2016-07-13T13:18:26.091Z,10184
2016-07-13T13:19:26.792Z,10440
2016-07-13T13:20:26.076Z,10748
2016-07-13T13:21:24.652Z,11008
2016-07-13T13:22:24.653Z,11192
2016-07-13T13:23:25.357Z,11316
2016-07-13T13:24:26.050Z,11168
2016-07-13T13:25:25.330Z,11060
2016-07-13T13:26:25.322Z,10804
2016-07-13T13:27:26.028Z,10392
2016-07-13T13:28:26.011Z,10160
2016-07-13T13:29:25.998Z,10148